sensor_id;sensor_type;location;lat;lon;timestamp;temperature;humidity
48208;DHT22;33997;53.278;9.708;2023-06-19T00:00:06;20.60;64.20
48208;DHT22;33997;53.278;9.708;2023-06-19T00:02:41;20.60;64.60
48208;DHT22;33997;53.278;9.708;2023-06-19T00:05:07;20.60;64.00
48208;DHT22;33997;53.278;9.708;2023-06-19T00:07:36;20.60;64.60
48208;DHT22;33997;53.278;9.708;2023-06-19T00:10:01;20.60;65.10
48208;DHT22;33997;53.278;9.708;2023-06-19T00:12:27;20.50;65.10
48208;DHT22;33997;53.278;9.708;2023-06-19T00:14:53;20.60;64.60
48208;DHT22;33997;53.278;9.708;2023-06-19T00:17:18;20.50;64.90
48208;DHT22;33997;53.278;9.708;2023-06-19T00:19:44;20.50;64.50
48208;DHT22;33997;53.278;9.708;2023-06-19T00:22:09;20.50;64.90
48208;DHT22;33997;53.278;9.708;2023-06-19T00:24:35;20.50;64.70
48208;DHT22;33997;53.278;9.708;2023-06-19T00:27:00;20.50;63.90
48208;DHT22;33997;53.278;9.708;2023-06-19T00:29:28;20.50;64.60
48208;DHT22;33997;53.278;9.708;2023-06-19T00:31:53;20.50;65.70
48208;DHT22;33997;53.278;9.708;2023-06-19T00:34:19;20.40;66.40
48208;DHT22;33997;53.278;9.708;2023-06-19T00:36:44;20.20;68.90
48208;DHT22;33997;53.278;9.708;2023-06-19T00:39:10;20.00;68.80
48208;DHT22;33997;53.278;9.708;2023-06-19T00:41:36;19.90;71.30
48208;DHT22;33997;53.278;9.708;2023-06-19T00:44:02;19.70;70.50
48208;DHT22;33997;53.278;9.708;2023-06-19T00:46:28;19.70;70.50
48208;DHT22;33997;53.278;9.708;2023-06-19T00:48:54;19.60;70.50
48208;DHT22;33997;53.278;9.708;2023-06-19T00:51:19;19.60;70.30
48208;DHT22;33997;53.278;9.708;2023-06-19T00:53:45;19.60;70.90
48208;DHT22;33997;53.278;9.708;2023-06-19T00:56:11;19.70;69.70
48208;DHT22;33997;53.278;9.708;2023-06-19T00:58:37;19.70;69.10
48208;DHT22;33997;53.278;9.708;2023-06-19T01:01:02;19.70;70.30
48208;DHT22;33997;53.278;9.708;2023-06-19T01:03:28;19.80;69.60
48208;DHT22;33997;53.278;9.708;2023-06-19T01:05:54;19.80;68.80
48208;DHT22;33997;53.278;9.708;2023-06-19T01:11:07;19.80;69.00
48208;DHT22;33997;53.278;9.708;2023-06-19T01:13:48;19.90;67.60
48208;DHT22;33997;53.278;9.708;2023-06-19T01:16:14;20.00;67.00
48208;DHT22;33997;53.278;9.708;2023-06-19T01:18:42;19.90;66.10
48208;DHT22;33997;53.278;9.708;2023-06-19T01:21:18;20.00;66.00
48208;DHT22;33997;53.278;9.708;2023-06-19T01:23:45;20.00;66.00
48208;DHT22;33997;53.278;9.708;2023-06-19T01:26:11;20.00;65.50
48208;DHT22;33997;53.278;9.708;2023-06-19T01:28:40;20.10;66.30
48208;DHT22;33997;53.278;9.708;2023-06-19T01:31:16;20.20;64.20
48208;DHT22;33997;53.278;9.708;2023-06-19T01:33:44;20.30;64.20
48208;DHT22;33997;53.278;9.708;2023-06-19T01:36:10;20.30;63.30
48208;DHT22;33997;53.278;9.708;2023-06-19T01:38:37;20.40;62.80
48208;DHT22;33997;53.278;9.708;2023-06-19T01:41:04;20.40;63.00
48208;DHT22;33997;53.278;9.708;2023-06-19T01:43:31;20.50;62.20
48208;DHT22;33997;53.278;9.708;2023-06-19T01:45:57;20.40;63.00
48208;DHT22;33997;53.278;9.708;2023-06-19T01:48:23;20.40;62.20
48208;DHT22;33997;53.278;9.708;2023-06-19T01:50:48;20.40;62.50
48208;DHT22;33997;53.278;9.708;2023-06-19T01:53:15;20.40;61.70
48208;DHT22;33997;53.278;9.708;2023-06-19T01:55:41;20.50;60.70
48208;DHT22;33997;53.278;9.708;2023-06-19T01:58:07;20.50;60.60
48208;DHT22;33997;53.278;9.708;2023-06-19T02:00:32;20.50;61.30
48208;DHT22;33997;53.278;9.708;2023-06-19T02:03:00;20.50;60.90
48208;DHT22;33997;53.278;9.708;2023-06-19T02:05:26;20.50;60.40
48208;DHT22;33997;53.278;9.708;2023-06-19T02:07:51;20.50;60.60
48208;DHT22;33997;53.278;9.708;2023-06-19T02:10:17;20.50;60.50
48208;DHT22;33997;53.278;9.708;2023-06-19T02:12:42;20.50;61.40
48208;DHT22;33997;53.278;9.708;2023-06-19T02:15:08;20.40;61.50
48208;DHT22;33997;53.278;9.708;2023-06-19T02:17:34;20.50;61.40
48208;DHT22;33997;53.278;9.708;2023-06-19T02:19:59;20.50;61.40
48208;DHT22;33997;53.278;9.708;2023-06-19T02:22:25;20.40;61.00
48208;DHT22;33997;53.278;9.708;2023-06-19T02:24:50;20.50;61.20
48208;DHT22;33997;53.278;9.708;2023-06-19T02:27:16;20.50;60.70
48208;DHT22;33997;53.278;9.708;2023-06-19T02:29:41;20.50;61.60
48208;DHT22;33997;53.278;9.708;2023-06-19T02:32:07;20.40;62.00
48208;DHT22;33997;53.278;9.708;2023-06-19T02:34:32;20.40;61.20
48208;DHT22;33997;53.278;9.708;2023-06-19T02:36:59;20.40;61.20
48208;DHT22;33997;53.278;9.708;2023-06-19T02:39:24;20.50;61.20
48208;DHT22;33997;53.278;9.708;2023-06-19T02:41:50;20.50;60.80
48208;DHT22;33997;53.278;9.708;2023-06-19T02:44:15;20.50;61.40
48208;DHT22;33997;53.278;9.708;2023-06-19T02:46:40;20.50;61.10
48208;DHT22;33997;53.278;9.708;2023-06-19T02:49:06;20.50;61.00
48208;DHT22;33997;53.278;9.708;2023-06-19T02:51:32;20.50;61.20
48208;DHT22;33997;53.278;9.708;2023-06-19T02:53:57;20.40;61.50
48208;DHT22;33997;53.278;9.708;2023-06-19T02:56:23;20.40;60.60
48208;DHT22;33997;53.278;9.708;2023-06-19T02:58:49;20.50;60.60
48208;DHT22;33997;53.278;9.708;2023-06-19T03:01:15;20.50;60.30
48208;DHT22;33997;53.278;9.708;2023-06-19T03:03:40;20.50;60.70
48208;DHT22;33997;53.278;9.708;2023-06-19T03:06:07;20.50;60.30
48208;DHT22;33997;53.278;9.708;2023-06-19T03:08:34;20.50;60.90
48208;DHT22;33997;53.278;9.708;2023-06-19T03:10:59;20.50;60.50
48208;DHT22;33997;53.278;9.708;2023-06-19T03:13:25;20.50;60.50
48208;DHT22;33997;53.278;9.708;2023-06-19T03:15:50;20.50;61.20
48208;DHT22;33997;53.278;9.708;2023-06-19T03:18:16;20.50;61.40
48208;DHT22;33997;53.278;9.708;2023-06-19T03:20:41;20.50;60.60
48208;DHT22;33997;53.278;9.708;2023-06-19T03:23:07;20.40;60.50
48208;DHT22;33997;53.278;9.708;2023-06-19T03:25:32;20.40;61.60
48208;DHT22;33997;53.278;9.708;2023-06-19T03:28:01;20.50;61.00
48208;DHT22;33997;53.278;9.708;2023-06-19T03:30:27;20.40;61.20
48208;DHT22;33997;53.278;9.708;2023-06-19T03:32:53;20.50;61.00
48208;DHT22;33997;53.278;9.708;2023-06-19T03:35:18;20.40;60.40
48208;DHT22;33997;53.278;9.708;2023-06-19T03:37:44;20.40;60.60
48208;DHT22;33997;53.278;9.708;2023-06-19T03:40:10;20.40;61.10
48208;DHT22;33997;53.278;9.708;2023-06-19T03:42:41;20.40;61.00
48208;DHT22;33997;53.278;9.708;2023-06-19T03:45:07;20.40;61.30
48208;DHT22;33997;53.278;9.708;2023-06-19T03:47:33;20.40;60.80
48208;DHT22;33997;53.278;9.708;2023-06-19T03:49:58;20.40;61.30
48208;DHT22;33997;53.278;9.708;2023-06-19T03:52:23;20.40;60.60
48208;DHT22;33997;53.278;9.708;2023-06-19T03:54:49;20.40;62.00
48208;DHT22;33997;53.278;9.708;2023-06-19T03:57:15;20.30;61.50
48208;DHT22;33997;53.278;9.708;2023-06-19T03:59:40;20.40;61.20
48208;DHT22;33997;53.278;9.708;2023-06-19T04:02:06;20.30;62.30
48208;DHT22;33997;53.278;9.708;2023-06-19T04:04:31;20.40;62.20
48208;DHT22;33997;53.278;9.708;2023-06-19T04:06:57;20.40;61.20
48208;DHT22;33997;53.278;9.708;2023-06-19T04:09:24;20.30;62.90
48208;DHT22;33997;53.278;9.708;2023-06-19T04:11:50;20.30;62.00
48208;DHT22;33997;53.278;9.708;2023-06-19T04:14:15;20.30;61.80
48208;DHT22;33997;53.278;9.708;2023-06-19T04:16:40;20.30;62.10
48208;DHT22;33997;53.278;9.708;2023-06-19T04:19:06;20.40;61.60
48208;DHT22;33997;53.278;9.708;2023-06-19T04:21:31;20.40;61.20
48208;DHT22;33997;53.278;9.708;2023-06-19T04:23:57;20.50;61.90
48208;DHT22;33997;53.278;9.708;2023-06-19T04:26:22;20.50;61.90
48208;DHT22;33997;53.278;9.708;2023-06-19T04:28:49;20.40;61.00
48208;DHT22;33997;53.278;9.708;2023-06-19T04:31:15;20.50;61.90
48208;DHT22;33997;53.278;9.708;2023-06-19T04:33:43;20.40;62.20
48208;DHT22;33997;53.278;9.708;2023-06-19T04:36:09;20.40;61.50
48208;DHT22;33997;53.278;9.708;2023-06-19T04:38:35;20.50;62.80
48208;DHT22;33997;53.278;9.708;2023-06-19T04:41:00;20.40;62.30
48208;DHT22;33997;53.278;9.708;2023-06-19T04:43:26;20.40;63.10
48208;DHT22;33997;53.278;9.708;2023-06-19T04:45:51;20.40;63.00
48208;DHT22;33997;53.278;9.708;2023-06-19T04:48:17;20.40;63.70
48208;DHT22;33997;53.278;9.708;2023-06-19T04:50:42;20.40;63.00
48208;DHT22;33997;53.278;9.708;2023-06-19T04:53:08;20.50;62.50
48208;DHT22;33997;53.278;9.708;2023-06-19T04:55:33;20.50;61.80
48208;DHT22;33997;53.278;9.708;2023-06-19T04:57:59;20.50;62.90
48208;DHT22;33997;53.278;9.708;2023-06-19T05:00:24;20.50;62.60
48208;DHT22;33997;53.278;9.708;2023-06-19T05:02:50;20.50;62.10
48208;DHT22;33997;53.278;9.708;2023-06-19T05:05:16;20.60;62.00
48208;DHT22;33997;53.278;9.708;2023-06-19T05:07:42;20.50;62.90
48208;DHT22;33997;53.278;9.708;2023-06-19T05:10:08;20.50;62.10
48208;DHT22;33997;53.278;9.708;2023-06-19T05:12:35;20.50;62.30
48208;DHT22;33997;53.278;9.708;2023-06-19T05:15:00;20.50;62.50
48208;DHT22;33997;53.278;9.708;2023-06-19T05:17:26;20.50;63.40
48208;DHT22;33997;53.278;9.708;2023-06-19T05:19:51;20.50;64.20
48208;DHT22;33997;53.278;9.708;2023-06-19T05:22:17;20.50;64.70
48208;DHT22;33997;53.278;9.708;2023-06-19T05:24:47;20.30;65.40
48208;DHT22;33997;53.278;9.708;2023-06-19T05:27:12;20.30;64.80
48208;DHT22;33997;53.278;9.708;2023-06-19T05:29:38;20.40;65.10
48208;DHT22;33997;53.278;9.708;2023-06-19T05:32:04;20.30;65.00
48208;DHT22;33997;53.278;9.708;2023-06-19T05:34:29;20.30;65.70
48208;DHT22;33997;53.278;9.708;2023-06-19T05:36:55;20.30;65.40
48208;DHT22;33997;53.278;9.708;2023-06-19T05:39:20;20.20;67.40
48208;DHT22;33997;53.278;9.708;2023-06-19T05:41:46;20.30;68.50
48208;DHT22;33997;53.278;9.708;2023-06-19T05:44:12;20.20;69.70
48208;DHT22;33997;53.278;9.708;2023-06-19T05:46:42;20.30;67.70
48208;DHT22;33997;53.278;9.708;2023-06-19T05:49:08;20.20;66.20
48208;DHT22;33997;53.278;9.708;2023-06-19T05:51:33;20.20;67.60
48208;DHT22;33997;53.278;9.708;2023-06-19T05:53:59;20.10;67.70
48208;DHT22;33997;53.278;9.708;2023-06-19T05:56:30;20.10;69.90
48208;DHT22;33997;53.278;9.708;2023-06-19T05:58:55;20.00;71.90
48208;DHT22;33997;53.278;9.708;2023-06-19T06:01:21;19.80;70.90
48208;DHT22;33997;53.278;9.708;2023-06-19T06:03:46;19.80;71.60
48208;DHT22;33997;53.278;9.708;2023-06-19T06:06:12;19.60;71.00
48208;DHT22;33997;53.278;9.708;2023-06-19T06:08:37;19.70;72.00
48208;DHT22;33997;53.278;9.708;2023-06-19T06:11:03;19.70;70.50
48208;DHT22;33997;53.278;9.708;2023-06-19T06:13:28;19.80;70.00
48208;DHT22;33997;53.278;9.708;2023-06-19T06:15:54;19.90;69.00
48208;DHT22;33997;53.278;9.708;2023-06-19T06:18:19;20.00;68.20
48208;DHT22;33997;53.278;9.708;2023-06-19T06:20:45;20.10;67.90
48208;DHT22;33997;53.278;9.708;2023-06-19T06:23:10;20.20;69.60
48208;DHT22;33997;53.278;9.708;2023-06-19T06:25:36;20.20;68.00
48208;DHT22;33997;53.278;9.708;2023-06-19T06:28:01;20.30;68.60
48208;DHT22;33997;53.278;9.708;2023-06-19T06:30:27;20.50;67.80
48208;DHT22;33997;53.278;9.708;2023-06-19T06:32:55;20.50;67.70
48208;DHT22;33997;53.278;9.708;2023-06-19T06:35:21;20.50;68.60
48208;DHT22;33997;53.278;9.708;2023-06-19T06:37:46;20.50;67.40
48208;DHT22;33997;53.278;9.708;2023-06-19T06:40:14;20.50;67.00
48208;DHT22;33997;53.278;9.708;2023-06-19T06:42:40;20.70;67.40
48208;DHT22;33997;53.278;9.708;2023-06-19T06:45:06;20.60;67.40
48208;DHT22;33997;53.278;9.708;2023-06-19T06:47:32;20.70;67.40
48208;DHT22;33997;53.278;9.708;2023-06-19T06:49:58;20.70;66.60
48208;DHT22;33997;53.278;9.708;2023-06-19T06:52:23;20.80;67.10
48208;DHT22;33997;53.278;9.708;2023-06-19T06:54:49;20.90;67.10
48208;DHT22;33997;53.278;9.708;2023-06-19T06:57:15;21.00;66.70
48208;DHT22;33997;53.278;9.708;2023-06-19T06:59:40;21.00;67.50
48208;DHT22;33997;53.278;9.708;2023-06-19T07:02:06;21.00;67.40
48208;DHT22;33997;53.278;9.708;2023-06-19T07:04:31;21.10;66.00
48208;DHT22;33997;53.278;9.708;2023-06-19T07:06:57;21.30;66.40
48208;DHT22;33997;53.278;9.708;2023-06-19T07:09:23;21.50;66.80
48208;DHT22;33997;53.278;9.708;2023-06-19T07:11:49;21.60;65.40
48208;DHT22;33997;53.278;9.708;2023-06-19T07:14:15;22.20;65.40
48208;DHT22;33997;53.278;9.708;2023-06-19T07:16:43;22.30;64.90
48208;DHT22;33997;53.278;9.708;2023-06-19T07:19:09;22.00;64.30
48208;DHT22;33997;53.278;9.708;2023-06-19T07:21:35;21.90;64.40
48208;DHT22;33997;53.278;9.708;2023-06-19T07:24:01;22.00;65.60
48208;DHT22;33997;53.278;9.708;2023-06-19T07:26:26;21.90;66.00
48208;DHT22;33997;53.278;9.708;2023-06-19T07:28:52;22.00;66.50
48208;DHT22;33997;53.278;9.708;2023-06-19T07:31:17;22.00;66.40
48208;DHT22;33997;53.278;9.708;2023-06-19T07:33:43;22.30;65.20
48208;DHT22;33997;53.278;9.708;2023-06-19T07:36:08;22.30;65.00
48208;DHT22;33997;53.278;9.708;2023-06-19T07:38:39;22.40;65.60
48208;DHT22;33997;53.278;9.708;2023-06-19T07:41:05;22.30;65.50
48208;DHT22;33997;53.278;9.708;2023-06-19T07:43:32;22.40;65.70
48208;DHT22;33997;53.278;9.708;2023-06-19T07:45:58;22.50;66.10
48208;DHT22;33997;53.278;9.708;2023-06-19T07:48:24;22.50;65.40
48208;DHT22;33997;53.278;9.708;2023-06-19T07:50:50;22.80;65.70
48208;DHT22;33997;53.278;9.708;2023-06-19T07:53:15;22.90;64.00
48208;DHT22;33997;53.278;9.708;2023-06-19T07:55:41;23.40;64.00
48208;DHT22;33997;53.278;9.708;2023-06-19T07:58:07;23.80;63.20
48208;DHT22;33997;53.278;9.708;2023-06-19T08:00:32;24.60;62.20
48208;DHT22;33997;53.278;9.708;2023-06-19T08:02:58;24.80;59.40
48208;DHT22;33997;53.278;9.708;2023-06-19T08:05:23;25.00;61.20
48208;DHT22;33997;53.278;9.708;2023-06-19T08:07:49;25.00;60.90
48208;DHT22;33997;53.278;9.708;2023-06-19T08:10:14;25.00;59.70
48208;DHT22;33997;53.278;9.708;2023-06-19T08:12:41;24.40;60.60
48208;DHT22;33997;53.278;9.708;2023-06-19T08:15:08;24.60;62.10
48208;DHT22;33997;53.278;9.708;2023-06-19T08:17:33;24.90;60.80
48208;DHT22;33997;53.278;9.708;2023-06-19T08:20:00;24.80;60.30
48208;DHT22;33997;53.278;9.708;2023-06-19T08:22:25;25.00;59.00
48208;DHT22;33997;53.278;9.708;2023-06-19T08:24:50;25.20;59.30
48208;DHT22;33997;53.278;9.708;2023-06-19T08:27:16;25.80;57.30
48208;DHT22;33997;53.278;9.708;2023-06-19T08:29:41;26.50;56.90
48208;DHT22;33997;53.278;9.708;2023-06-19T08:32:08;26.60;55.60
48208;DHT22;33997;53.278;9.708;2023-06-19T08:34:35;26.50;53.20
48208;DHT22;33997;53.278;9.708;2023-06-19T08:37:00;26.50;55.40
48208;DHT22;33997;53.278;9.708;2023-06-19T08:39:26;26.60;54.30
48208;DHT22;33997;53.278;9.708;2023-06-19T08:41:51;26.40;54.50
48208;DHT22;33997;53.278;9.708;2023-06-19T08:44:18;26.40;54.70
48208;DHT22;33997;53.278;9.708;2023-06-19T08:46:44;26.40;54.90
48208;DHT22;33997;53.278;9.708;2023-06-19T08:49:09;26.70;54.80
48208;DHT22;33997;53.278;9.708;2023-06-19T08:51:38;26.50;52.40
48208;DHT22;33997;53.278;9.708;2023-06-19T08:54:05;26.90;53.90
48208;DHT22;33997;53.278;9.708;2023-06-19T08:56:32;27.40;52.50
48208;DHT22;33997;53.278;9.708;2023-06-19T08:59:14;27.30;51.90
48208;DHT22;33997;53.278;9.708;2023-06-19T09:01:40;27.50;53.10
48208;DHT22;33997;53.278;9.708;2023-06-19T09:04:17;27.30;53.60
48208;DHT22;33997;53.278;9.708;2023-06-19T09:06:50;27.50;52.00
48208;DHT22;33997;53.278;9.708;2023-06-19T09:09:18;27.00;52.20
48208;DHT22;33997;53.278;9.708;2023-06-19T09:11:58;27.00;53.30
48208;DHT22;33997;53.278;9.708;2023-06-19T09:14:37;27.10;54.10
48208;DHT22;33997;53.278;9.708;2023-06-19T09:17:03;27.20;54.50
48208;DHT22;33997;53.278;9.708;2023-06-19T09:19:30;27.10;53.80
48208;DHT22;33997;53.278;9.708;2023-06-19T09:22:07;27.40;54.10
48208;DHT22;33997;53.278;9.708;2023-06-19T09:24:40;27.30;52.40
48208;DHT22;33997;53.278;9.708;2023-06-19T09:27:11;27.20;55.00
48208;DHT22;33997;53.278;9.708;2023-06-19T09:29:44;27.00;54.20
48208;DHT22;33997;53.278;9.708;2023-06-19T09:32:26;27.30;53.40
48208;DHT22;33997;53.278;9.708;2023-06-19T09:34:55;27.00;51.10
48208;DHT22;33997;53.278;9.708;2023-06-19T09:37:27;27.00;52.20
48208;DHT22;33997;53.278;9.708;2023-06-19T09:39:57;27.20;50.70
48208;DHT22;33997;53.278;9.708;2023-06-19T09:42:26;27.10;49.80
48208;DHT22;33997;53.278;9.708;2023-06-19T09:44:58;27.40;51.50
48208;DHT22;33997;53.278;9.708;2023-06-19T09:47:25;27.40;49.60
48208;DHT22;33997;53.278;9.708;2023-06-19T09:49:55;27.20;49.50
48208;DHT22;33997;53.278;9.708;2023-06-19T09:52:21;27.40;49.20
48208;DHT22;33997;53.278;9.708;2023-06-19T09:54:50;27.70;49.90
48208;DHT22;33997;53.278;9.708;2023-06-19T09:57:15;27.90;49.00
48208;DHT22;33997;53.278;9.708;2023-06-19T09:59:42;27.90;47.90
48208;DHT22;33997;53.278;9.708;2023-06-19T10:02:09;28.20;48.30
48208;DHT22;33997;53.278;9.708;2023-06-19T10:04:46;28.90;47.80
48208;DHT22;33997;53.278;9.708;2023-06-19T10:07:22;29.00;45.60
48208;DHT22;33997;53.278;9.708;2023-06-19T10:09:58;29.20;46.70
48208;DHT22;33997;53.278;9.708;2023-06-19T10:12:38;29.10;46.20
48208;DHT22;33997;53.278;9.708;2023-06-19T10:15:23;29.40;45.10
48208;DHT22;33997;53.278;9.708;2023-06-19T10:17:51;30.00;45.60
48208;DHT22;33997;53.278;9.708;2023-06-19T10:20:20;30.00;43.90
48208;DHT22;33997;53.278;9.708;2023-06-19T10:23:22;29.90;44.80
48208;DHT22;33997;53.278;9.708;2023-06-19T10:25:59;30.50;45.00
48208;DHT22;33997;53.278;9.708;2023-06-19T10:28:30;30.00;44.60
48208;DHT22;33997;53.278;9.708;2023-06-19T10:31:07;30.10;45.20
48208;DHT22;33997;53.278;9.708;2023-06-19T10:33:35;29.70;46.20
48208;DHT22;33997;53.278;9.708;2023-06-19T10:36:17;29.40;45.90
48208;DHT22;33997;53.278;9.708;2023-06-19T10:38:43;29.00;46.40
48208;DHT22;33997;53.278;9.708;2023-06-19T10:41:25;28.60;48.00
48208;DHT22;33997;53.278;9.708;2023-06-19T10:43:58;28.90;47.90
48208;DHT22;33997;53.278;9.708;2023-06-19T10:46:28;28.60;48.00
48208;DHT22;33997;53.278;9.708;2023-06-19T10:48:55;29.70;47.80
48208;DHT22;33997;53.278;9.708;2023-06-19T10:51:36;29.90;46.40
48208;DHT22;33997;53.278;9.708;2023-06-19T10:54:02;29.90;49.00
48208;DHT22;33997;53.278;9.708;2023-06-19T10:56:27;29.50;48.20
48208;DHT22;33997;53.278;9.708;2023-06-19T10:59:05;29.00;48.60
48208;DHT22;33997;53.278;9.708;2023-06-19T11:01:38;29.10;48.00
48208;DHT22;33997;53.278;9.708;2023-06-19T11:04:09;29.40;48.90
48208;DHT22;33997;53.278;9.708;2023-06-19T11:06:36;29.90;48.10
48208;DHT22;33997;53.278;9.708;2023-06-19T11:09:02;29.80;48.20
48208;DHT22;33997;53.278;9.708;2023-06-19T11:11:44;29.90;48.00
48208;DHT22;33997;53.278;9.708;2023-06-19T11:14:11;30.00;48.20
48208;DHT22;33997;53.278;9.708;2023-06-19T11:16:45;29.50;48.90
48208;DHT22;33997;53.278;9.708;2023-06-19T11:19:30;30.00;49.40
48208;DHT22;33997;53.278;9.708;2023-06-19T11:21:57;30.20;46.30
48208;DHT22;33997;53.278;9.708;2023-06-19T11:24:23;30.40;47.30
48208;DHT22;33997;53.278;9.708;2023-06-19T11:26:50;30.60;46.40
48208;DHT22;33997;53.278;9.708;2023-06-19T11:29:21;30.10;47.90
48208;DHT22;33997;53.278;9.708;2023-06-19T11:31:48;29.70;47.50
48208;DHT22;33997;53.278;9.708;2023-06-19T11:34:15;29.40;48.90
48208;DHT22;33997;53.278;9.708;2023-06-19T11:36:41;29.50;49.20
48208;DHT22;33997;53.278;9.708;2023-06-19T11:39:15;29.10;49.80
48208;DHT22;33997;53.278;9.708;2023-06-19T11:41:41;28.80;50.80
48208;DHT22;33997;53.278;9.708;2023-06-19T11:44:07;28.40;51.80
48208;DHT22;33997;53.278;9.708;2023-06-19T11:46:36;28.40;51.80
48208;DHT22;33997;53.278;9.708;2023-06-19T11:49:16;28.40;52.10
48208;DHT22;33997;53.278;9.708;2023-06-19T11:51:45;29.00;51.00
48208;DHT22;33997;53.278;9.708;2023-06-19T11:54:12;29.30;49.60
48208;DHT22;33997;53.278;9.708;2023-06-19T11:56:38;29.20;50.30
48208;DHT22;33997;53.278;9.708;2023-06-19T11:59:05;29.30;50.30
48208;DHT22;33997;53.278;9.708;2023-06-19T12:01:34;29.20;49.20
48208;DHT22;33997;53.278;9.708;2023-06-19T12:04:00;28.90;50.50
48208;DHT22;33997;53.278;9.708;2023-06-19T12:06:26;28.70;51.40
48208;DHT22;33997;53.278;9.708;2023-06-19T12:08:52;29.00;51.80
48208;DHT22;33997;53.278;9.708;2023-06-19T12:11:17;28.50;51.30
48208;DHT22;33997;53.278;9.708;2023-06-19T12:13:43;28.50;51.40
48208;DHT22;33997;53.278;9.708;2023-06-19T12:16:12;29.30;50.20
48208;DHT22;33997;53.278;9.708;2023-06-19T12:18:38;29.20;49.70
48208;DHT22;33997;53.278;9.708;2023-06-19T12:21:04;28.40;51.60
48208;DHT22;33997;53.278;9.708;2023-06-19T12:23:29;28.60;51.30
48208;DHT22;33997;53.278;9.708;2023-06-19T12:25:55;28.90;49.80
48208;DHT22;33997;53.278;9.708;2023-06-19T12:28:21;29.30;50.20
48208;DHT22;33997;53.278;9.708;2023-06-19T12:30:47;29.50;49.70
48208;DHT22;33997;53.278;9.708;2023-06-19T12:33:20;29.10;49.30
48208;DHT22;33997;53.278;9.708;2023-06-19T12:35:48;28.80;50.30
48208;DHT22;33997;53.278;9.708;2023-06-19T12:38:14;29.30;49.90
48208;DHT22;33997;53.278;9.708;2023-06-19T12:40:40;30.10;47.80
48208;DHT22;33997;53.278;9.708;2023-06-19T12:43:06;29.90;47.80
48208;DHT22;33997;53.278;9.708;2023-06-19T12:45:31;30.10;49.00
48208;DHT22;33997;53.278;9.708;2023-06-19T12:47:57;29.80;48.10
48208;DHT22;33997;53.278;9.708;2023-06-19T12:50:23;29.80;48.00
48208;DHT22;33997;53.278;9.708;2023-06-19T12:52:50;30.20;47.40
48208;DHT22;33997;53.278;9.708;2023-06-19T12:55:15;30.80;47.00
48208;DHT22;33997;53.278;9.708;2023-06-19T12:57:41;30.30;46.60
48208;DHT22;33997;53.278;9.708;2023-06-19T13:00:10;29.70;46.80
48208;DHT22;33997;53.278;9.708;2023-06-19T13:02:40;29.50;48.60
48208;DHT22;33997;53.278;9.708;2023-06-19T13:05:09;29.90;48.20
48208;DHT22;33997;53.278;9.708;2023-06-19T13:07:35;29.90;48.90
48208;DHT22;33997;53.278;9.708;2023-06-19T13:10:00;28.90;50.90
48208;DHT22;33997;53.278;9.708;2023-06-19T13:12:26;28.40;52.70
48208;DHT22;33997;53.278;9.708;2023-06-19T13:14:51;28.50;52.80
48208;DHT22;33997;53.278;9.708;2023-06-19T13:17:17;28.10;53.50
48208;DHT22;33997;53.278;9.708;2023-06-19T13:19:42;28.00;53.60
48208;DHT22;33997;53.278;9.708;2023-06-19T13:22:08;28.40;52.50
48208;DHT22;33997;53.278;9.708;2023-06-19T13:24:34;28.40;53.90
48208;DHT22;33997;53.278;9.708;2023-06-19T13:26:59;28.80;52.70
48208;DHT22;33997;53.278;9.708;2023-06-19T13:29:25;28.60;52.50
48208;DHT22;33997;53.278;9.708;2023-06-19T13:31:50;29.10;51.00
48208;DHT22;33997;53.278;9.708;2023-06-19T13:34:16;29.40;50.60
48208;DHT22;33997;53.278;9.708;2023-06-19T13:36:43;29.70;50.10
48208;DHT22;33997;53.278;9.708;2023-06-19T13:39:09;29.80;50.40
48208;DHT22;33997;53.278;9.708;2023-06-19T13:41:36;30.10;49.20
48208;DHT22;33997;53.278;9.708;2023-06-19T13:44:01;29.60;49.50
48208;DHT22;33997;53.278;9.708;2023-06-19T13:46:27;29.00;50.90
48208;DHT22;33997;53.278;9.708;2023-06-19T13:48:53;28.90;50.40
48208;DHT22;33997;53.278;9.708;2023-06-19T13:51:22;28.30;51.00
48208;DHT22;33997;53.278;9.708;2023-06-19T13:53:48;28.20;51.60
48208;DHT22;33997;53.278;9.708;2023-06-19T13:56:13;28.30;52.00
48208;DHT22;33997;53.278;9.708;2023-06-19T13:58:39;28.50;51.60
48208;DHT22;33997;53.278;9.708;2023-06-19T14:01:05;28.90;50.70
48208;DHT22;33997;53.278;9.708;2023-06-19T14:03:31;29.10;49.90
48208;DHT22;33997;53.278;9.708;2023-06-19T14:05:57;28.90;49.80
48208;DHT22;33997;53.278;9.708;2023-06-19T14:08:22;28.60;50.10
48208;DHT22;33997;53.278;9.708;2023-06-19T14:10:49;28.70;49.50
48208;DHT22;33997;53.278;9.708;2023-06-19T14:13:15;29.00;49.40
48208;DHT22;33997;53.278;9.708;2023-06-19T14:15:41;30.00;47.60
48208;DHT22;33997;53.278;9.708;2023-06-19T14:18:07;29.90;46.60
48208;DHT22;33997;53.278;9.708;2023-06-19T14:20:32;30.20;46.70
48208;DHT22;33997;53.278;9.708;2023-06-19T14:22:58;30.30;46.00
48208;DHT22;33997;53.278;9.708;2023-06-19T14:25:23;30.90;45.20
48208;DHT22;33997;53.278;9.708;2023-06-19T14:27:49;30.20;46.50
48208;DHT22;33997;53.278;9.708;2023-06-19T14:30:14;30.20;47.70
48208;DHT22;33997;53.278;9.708;2023-06-19T14:32:40;29.40;49.50
48208;DHT22;33997;53.278;9.708;2023-06-19T14:35:06;28.40;51.00
48208;DHT22;33997;53.278;9.708;2023-06-19T14:37:32;27.90;51.90
48208;DHT22;33997;53.278;9.708;2023-06-19T14:39:57;28.80;50.80
48208;DHT22;33997;53.278;9.708;2023-06-19T14:42:23;28.90;50.60
48208;DHT22;33997;53.278;9.708;2023-06-19T14:44:49;29.10;49.70
48208;DHT22;33997;53.278;9.708;2023-06-19T14:47:14;28.90;49.80
48208;DHT22;33997;53.278;9.708;2023-06-19T14:49:40;28.50;50.60
48208;DHT22;33997;53.278;9.708;2023-06-19T14:52:06;28.00;51.10
48208;DHT22;33997;53.278;9.708;2023-06-19T14:54:32;27.90;52.10
48208;DHT22;33997;53.278;9.708;2023-06-19T14:56:57;27.80;52.30
48208;DHT22;33997;53.278;9.708;2023-06-19T14:59:23;28.00;52.00
48208;DHT22;33997;53.278;9.708;2023-06-19T15:01:48;28.00;51.30
48208;DHT22;33997;53.278;9.708;2023-06-19T15:04:14;27.70;52.00
48208;DHT22;33997;53.278;9.708;2023-06-19T15:06:39;27.80;52.20
48208;DHT22;33997;53.278;9.708;2023-06-19T15:09:05;27.90;52.20
48208;DHT22;33997;53.278;9.708;2023-06-19T15:11:30;27.80;52.10
48208;DHT22;33997;53.278;9.708;2023-06-19T15:13:56;27.20;52.50
48208;DHT22;33997;53.278;9.708;2023-06-19T15:16:21;27.50;52.80
48208;DHT22;33997;53.278;9.708;2023-06-19T15:18:48;27.70;52.20
48208;DHT22;33997;53.278;9.708;2023-06-19T15:21:13;28.60;51.00
48208;DHT22;33997;53.278;9.708;2023-06-19T15:23:39;28.70;49.50
48208;DHT22;33997;53.278;9.708;2023-06-19T15:26:04;29.20;48.70
48208;DHT22;33997;53.278;9.708;2023-06-19T15:28:32;29.80;48.20
48208;DHT22;33997;53.278;9.708;2023-06-19T15:30:58;30.50;48.10